PWSweather.com
Personal Weather Stations
Station Observations
719732
Ponferrada, PonferradaES 24411

PonferradaPonferradaES 24411

Lat: 42.5728, Lon: -6.6425

Elevation: 1676

Station Type: PCE-FWS 20 con garita Ambient Weather SRS100LX

Latest ConditionsUpdated 11:10:03 PM GMT+01:01 Sunday, Jan 19, 2020
Currently Today's Max Today's Min Today's Average
Temperature 38.7°F3.7°C 56.1°F13.4°C 37.8°F3.2°C 44.4°F6.9°C
Dew Point 20.2°F-6.6°C 39.1°F3.9°C 11.2°F-11.6°C 27.3°F-2.6°C
Winds 3.8 mph ENE6.1 kmh ENE 10.7 mph -17.2 kmh - - 3.0 mph 4.8 kmh
Wind Gusts 9.2 mph14.8 kmh 18.3 mph29.5 kmh - -
Humidity 47% 96% 19% 59%
Pressure 30.42 in1030.1 mb 30.42 in1030.1 mb 30.14 in1020.7 mb -
Precipitation - 0.01 in0.3 mm - -
Hour Temp Dew Point Humidity Winds Wind Gusts Pressure Precip Precip Rate Daily Precip Total
11:10 PM 38.7°F3.7°C 20.2°F-6.6°C 47% 3.8 mph ENE6.1 kmh ENE 9.2 mph14.8 kmh 30.42 in1030.1 mb 0.00 in0.0 mm 0.00 in0.0 mm 0.01 in0.3 mm
11:05 PM 38.7°F3.7°C 19.7°F-6.8°C 46% Calm Calm 5.4 mph8.7 kmh 30.42 in1030.1 mb 0.00 in0.0 mm 0.00 in0.0 mm 0.01 in0.3 mm
11:00 PM 39.0°F3.9°C 19.5°F-6.9°C 45% 3.8 mph NE6.1 kmh NE 8.3 mph13.4 kmh 30.42 in1030.1 mb 0.00 in0.0 mm 0.00 in0.0 mm 0.01 in0.3 mm
10:55 PM 39.0°F3.9°C 19.5°F-6.9°C 45% 3.8 mph NE6.1 kmh NE 9.2 mph14.8 kmh 30.42 in1030.1 mb 0.00 in0.0 mm 0.00 in0.0 mm 0.01 in0.3 mm
10:50 PM 39.0°F3.9°C 19.5°F-6.9°C 45% 3.8 mph NE6.1 kmh NE 9.2 mph14.8 kmh 30.42 in1030.1 mb 0.00 in0.0 mm 0.00 in0.0 mm 0.01 in0.3 mm
10:45 PM 39.2°F4.0°C 19.1°F-7.2°C 44% 5.4 mph NNE8.7 kmh NNE 6.9 mph11.1 kmh 30.42 in1030.1 mb 0.00 in0.0 mm 0.00 in0.0 mm 0.01 in0.3 mm
10:40 PM 39.4°F4.1°C 18.8°F-7.3°C 43% 3.1 mph NE5.0 kmh NE 6.0 mph9.7 kmh 30.42 in1030.1 mb 0.00 in0.0 mm 0.00 in0.0 mm 0.01 in0.3 mm
10:35 PM 39.6°F4.2°C 18.4°F-7.6°C 42% 3.1 mph NE5.0 kmh NE 6.0 mph9.7 kmh 30.42 in1030.1 mb 0.00 in0.0 mm 0.00 in0.0 mm 0.01 in0.3 mm
10:30 PM 39.9°F4.4°C 18.7°F-7.4°C 42% 4.5 mph NE7.2 kmh NE 7.6 mph12.2 kmh 30.42 in1030.1 mb 0.00 in0.0 mm 0.00 in0.0 mm 0.01 in0.3 mm
10:25 PM 39.9°F4.4°C 18.2°F-7.7°C 41% 3.1 mph ENE5.0 kmh ENE 10.7 mph17.2 kmh 30.42 in1030.1 mb 0.00 in0.0 mm 0.00 in0.0 mm 0.01 in0.3 mm
10:20 PM 39.6°F4.2°C 17.8°F-7.9°C 41% 3.1 mph ENE5.0 kmh ENE 10.7 mph17.2 kmh 30.41 in1029.8 mb 0.00 in0.0 mm 0.00 in0.0 mm 0.01 in0.3 mm
10:15 PM 39.2°F4.0°C 16.9°F-8.4°C 40% 0.7 mph E1.1 kmh E 3.8 mph6.1 kmh 30.42 in1030.1 mb 0.00 in0.0 mm 0.00 in0.0 mm 0.01 in0.3 mm
10:10 PM 39.2°F4.0°C 16.3°F-8.7°C 39% 0.7 mph ENE1.1 kmh ENE 4.5 mph7.2 kmh 30.41 in1029.8 mb 0.00 in0.0 mm 0.00 in0.0 mm 0.01 in0.3 mm
10:05 PM 39.7°F4.3°C 16.2°F-8.8°C 38% 1.6 mph NE2.6 kmh NE 4.5 mph7.2 kmh 30.41 in1029.8 mb 0.00 in0.0 mm 0.00 in0.0 mm 0.01 in0.3 mm
10:00 PM 39.9°F4.4°C 15.2°F-9.3°C 36% 3.1 mph NE5.0 kmh NE 6.9 mph11.1 kmh 30.41 in1029.8 mb 0.00 in0.0 mm 0.00 in0.0 mm 0.01 in0.3 mm
09:55 PM 39.9°F4.4°C 15.2°F-9.3°C 36% Calm Calm 6.9 mph11.1 kmh 30.41 in1029.8 mb 0.00 in0.0 mm 0.00 in0.0 mm 0.01 in0.3 mm
09:50 PM 40.1°F4.5°C 15.3°F-9.3°C 36% Calm Calm 3.8 mph6.1 kmh 30.42 in1030.1 mb 0.00 in0.0 mm 0.00 in0.0 mm 0.01 in0.3 mm
09:45 PM 40.5°F4.7°C 15.0°F-9.4°C 35% Calm Calm 5.4 mph8.7 kmh 30.41 in1029.8 mb 0.00 in0.0 mm 0.00 in0.0 mm 0.01 in0.3 mm
09:40 PM 40.8°F4.9°C 14.6°F-9.7°C 34% Calm Calm 5.4 mph8.7 kmh 30.41 in1029.8 mb 0.00 in0.0 mm 0.00 in0.0 mm 0.01 in0.3 mm
09:35 PM 40.8°F4.9°C 14.6°F-9.7°C 34% 1.6 mph NE2.6 kmh NE 5.4 mph8.7 kmh 30.41 in1029.8 mb 0.00 in0.0 mm 0.00 in0.0 mm 0.01 in0.3 mm
09:30 PM 41.0°F5.0°C 14.1°F-9.9°C 33% 0.7 mph E1.1 kmh E 5.4 mph8.7 kmh 30.41 in1029.8 mb 0.00 in0.0 mm 0.00 in0.0 mm 0.01 in0.3 mm
09:25 PM 41.2°F5.1°C 14.3°F-9.8°C 33% 2.2 mph ENE3.5 kmh ENE 5.4 mph8.7 kmh 30.41 in1029.8 mb 0.00 in0.0 mm 0.00 in0.0 mm 0.01 in0.3 mm
09:20 PM 41.4°F5.2°C 14.4°F-9.8°C 33% Calm Calm 4.5 mph7.2 kmh 30.41 in1029.8 mb 0.00 in0.0 mm 0.00 in0.0 mm 0.01 in0.3 mm
09:15 PM 41.5°F5.3°C 13.9°F-10.1°C 32% 2.2 mph E3.5 kmh E 9.2 mph14.8 kmh 30.41 in1029.8 mb 0.00 in0.0 mm 0.00 in0.0 mm 0.01 in0.3 mm
09:10 PM 41.7°F5.4°C 14.1°F-9.9°C 32% 1.6 mph E2.6 kmh E 9.2 mph14.8 kmh 30.41 in1029.8 mb 0.00 in0.0 mm 0.00 in0.0 mm 0.01 in0.3 mm
09:05 PM 41.9°F5.5°C 14.2°F-9.9°C 32% 3.1 mph ESE5.0 kmh ESE 4.5 mph7.2 kmh 30.41 in1029.8 mb 0.00 in0.0 mm 0.00 in0.0 mm 0.01 in0.3 mm
09:00 PM 42.4°F5.8°C 13.2°F-10.4°C 30% Calm Calm 5.4 mph8.7 kmh 30.40 in1029.5 mb 0.00 in0.0 mm 0.00 in0.0 mm 0.01 in0.3 mm
08:55 PM 42.6°F5.9°C 12.6°F-10.8°C 29% 3.1 mph ESE5.0 kmh ESE 6.0 mph9.7 kmh 30.41 in1029.8 mb 0.00 in0.0 mm 0.00 in0.0 mm 0.01 in0.3 mm
08:50 PM 42.8°F6.0°C 12.0°F-11.1°C 28% 3.8 mph SE6.1 kmh SE 6.9 mph11.1 kmh 30.40 in1029.5 mb 0.00 in0.0 mm 0.00 in0.0 mm 0.01 in0.3 mm
08:45 PM 42.6°F5.9°C 12.6°F-10.8°C 29% 3.8 mph SE6.1 kmh SE 6.9 mph11.1 kmh 30.41 in1029.8 mb 0.00 in0.0 mm 0.00 in0.0 mm 0.01 in0.3 mm
08:40 PM 43.0°F6.1°C 12.1°F-11.1°C 28% 3.8 mph SE6.1 kmh SE 9.2 mph14.8 kmh 30.41 in1029.8 mb 0.00 in0.0 mm 0.00 in0.0 mm 0.01 in0.3 mm
08:35 PM 42.8°F6.0°C 11.2°F-11.6°C 27% 3.8 mph SE6.1 kmh SE 9.2 mph14.8 kmh 30.41 in1029.8 mb 0.00 in0.0 mm 0.00 in0.0 mm 0.01 in0.3 mm
08:30 PM 42.8°F6.0°C 12.0°F-11.1°C 28% 5.4 mph SE8.7 kmh SE 7.6 mph12.2 kmh 30.40 in1029.5 mb 0.00 in0.0 mm 0.00 in0.0 mm 0.01 in0.3 mm
08:25 PM 43.0°F6.1°C 12.1°F-11.1°C 28% 3.8 mph ESE6.1 kmh ESE 7.6 mph12.2 kmh 30.40 in1029.5 mb 0.00 in0.0 mm 0.00 in0.0 mm 0.01 in0.3 mm
08:20 PM 43.2°F6.2°C 12.3°F-10.9°C 28% 3.1 mph E5.0 kmh E 8.3 mph13.4 kmh 30.40 in1029.5 mb 0.00 in0.0 mm 0.00 in0.0 mm 0.01 in0.3 mm
08:15 PM 43.2°F6.2°C 11.5°F-11.4°C 27% 6.0 mph ESE9.7 kmh ESE 8.3 mph13.4 kmh 30.40 in1029.5 mb 0.00 in0.0 mm 0.00 in0.0 mm 0.01 in0.3 mm
08:10 PM 43.3°F6.3°C 11.6°F-11.3°C 27% 3.8 mph SE6.1 kmh SE 8.3 mph13.4 kmh 30.40 in1029.5 mb 0.00 in0.0 mm 0.00 in0.0 mm 0.01 in0.3 mm
08:05 PM 43.3°F6.3°C 12.4°F-10.9°C 28% 5.4 mph SE8.7 kmh SE 7.6 mph12.2 kmh 30.40 in1029.5 mb 0.00 in0.0 mm 0.00 in0.0 mm 0.01 in0.3 mm
08:00 PM 43.3°F6.3°C 12.4°F-10.9°C 28% 5.4 mph ESE8.7 kmh ESE 8.3 mph13.4 kmh 30.40 in1029.5 mb 0.00 in0.0 mm 0.00 in0.0 mm 0.01 in0.3 mm
07:55 PM 43.5°F6.4°C 12.6°F-10.8°C 28% 3.8 mph SE6.1 kmh SE 8.3 mph13.4 kmh 30.40 in1029.5 mb 0.00 in0.0 mm 0.00 in0.0 mm 0.01 in0.3 mm
07:50 PM 43.7°F6.5°C 12.8°F-10.7°C 28% 6.0 mph E9.7 kmh E 8.3 mph13.4 kmh 30.40 in1029.5 mb 0.00 in0.0 mm 0.00 in0.0 mm 0.01 in0.3 mm
07:45 PM 43.7°F6.5°C 12.8°F-10.7°C 28% 3.1 mph ESE5.0 kmh ESE 6.9 mph11.1 kmh 30.40 in1029.5 mb 0.00 in0.0 mm 0.00 in0.0 mm 0.01 in0.3 mm
07:40 PM 43.9°F6.6°C 13.7°F-10.2°C 29% 4.5 mph SE7.2 kmh SE 6.9 mph11.1 kmh 30.39 in1029.1 mb 0.00 in0.0 mm 0.00 in0.0 mm 0.01 in0.3 mm
07:35 PM 43.9°F6.6°C 14.5°F-9.7°C 30% 3.8 mph ESE6.1 kmh ESE 6.9 mph11.1 kmh 30.39 in1029.1 mb 0.00 in0.0 mm 0.00 in0.0 mm 0.01 in0.3 mm
07:30 PM 44.1°F6.7°C 14.6°F-9.7°C 30% 1.6 mph E2.6 kmh E 9.8 mph15.8 kmh 30.39 in1029.1 mb 0.00 in0.0 mm 0.00 in0.0 mm 0.01 in0.3 mm
07:25 PM 44.2°F6.8°C 14.0°F-10.0°C 29% 0.7 mph E1.1 kmh E 11.4 mph18.3 kmh 30.39 in1029.1 mb 0.00 in0.0 mm 0.00 in0.0 mm 0.01 in0.3 mm
07:20 PM 44.4°F6.9°C 14.2°F-9.9°C 29% 6.0 mph E9.7 kmh E 11.4 mph18.3 kmh 30.39 in1029.1 mb 0.00 in0.0 mm 0.00 in0.0 mm 0.01 in0.3 mm
07:15 PM 44.4°F6.9°C 14.2°F-9.9°C 29% 3.8 mph ENE6.1 kmh ENE 9.2 mph14.8 kmh 30.39 in1029.1 mb 0.00 in0.0 mm 0.00 in0.0 mm 0.01 in0.3 mm
07:10 PM 44.4°F6.9°C 16.4°F-8.7°C 32% 6.0 mph E9.7 kmh E 11.4 mph18.3 kmh 30.39 in1029.1 mb 0.00 in0.0 mm 0.00 in0.0 mm 0.01 in0.3 mm
07:05 PM 44.4°F6.9°C 15.7°F-9.1°C 31% 3.1 mph E5.0 kmh E 11.4 mph18.3 kmh 30.39 in1029.1 mb 0.00 in0.0 mm 0.00 in0.0 mm 0.01 in0.3 mm
07:00 PM 44.4°F6.9°C 16.4°F-8.7°C 32% 6.0 mph E9.7 kmh E 9.2 mph14.8 kmh 30.40 in1029.5 mb 0.00 in0.0 mm 0.00 in0.0 mm 0.01 in0.3 mm
06:55 PM 44.6°F7.0°C 15.9°F-8.9°C 31% Calm Calm 8.3 mph13.4 kmh 30.39 in1029.1 mb 0.00 in0.0 mm 0.00 in0.0 mm 0.01 in0.3 mm
06:50 PM 45.0°F7.2°C 16.2°F-8.8°C 31% 2.2 mph E3.5 kmh E 8.3 mph13.4 kmh 30.39 in1029.1 mb 0.00 in0.0 mm 0.00 in0.0 mm 0.01 in0.3 mm
06:45 PM 45.0°F7.2°C 15.4°F-9.2°C 30% 2.2 mph E3.5 kmh E 8.3 mph13.4 kmh 30.39 in1029.1 mb 0.00 in0.0 mm 0.00 in0.0 mm 0.01 in0.3 mm
06:40 PM 45.3°F7.4°C 16.5°F-8.6°C 31% Calm Calm 5.4 mph8.7 kmh 30.38 in1028.8 mb 0.00 in0.0 mm 0.00 in0.0 mm 0.01 in0.3 mm
06:35 PM 45.7°F7.6°C 15.3°F-9.3°C 29% 3.1 mph E5.0 kmh E 8.3 mph13.4 kmh 30.38 in1028.8 mb 0.00 in0.0 mm 0.00 in0.0 mm 0.01 in0.3 mm
06:30 PM 46.0°F7.8°C 14.0°F-10.0°C 27% 0.7 mph E1.1 kmh E 8.3 mph13.4 kmh 30.38 in1028.8 mb 0.00 in0.0 mm 0.00 in0.0 mm 0.01 in0.3 mm
06:25 PM 46.4°F8.0°C 15.1°F-9.4°C 28% 5.4 mph E8.7 kmh E 9.2 mph14.8 kmh 30.38 in1028.8 mb 0.00 in0.0 mm 0.00 in0.0 mm 0.01 in0.3 mm
06:20 PM 46.8°F8.2°C 14.6°F-9.7°C 27% Calm Calm 9.2 mph14.8 kmh 30.38 in1028.8 mb 0.00 in0.0 mm 0.00 in0.0 mm 0.01 in0.3 mm
06:15 PM 46.9°F8.3°C 13.9°F-10.1°C 26% 4.5 mph NE7.2 kmh NE 8.3 mph13.4 kmh 30.38 in1028.8 mb 0.00 in0.0 mm 0.00 in0.0 mm 0.01 in0.3 mm
06:10 PM 47.1°F8.4°C 14.0°F-10.0°C 26% 4.5 mph NE7.2 kmh NE 7.6 mph12.2 kmh 30.38 in1028.8 mb 0.00 in0.0 mm 0.00 in0.0 mm 0.01 in0.3 mm
06:05 PM 47.7°F8.7°C 14.5°F-9.7°C 26% 4.5 mph NE7.2 kmh NE 13.6 mph21.9 kmh 30.38 in1028.8 mb 0.00 in0.0 mm 0.00 in0.0 mm 0.01 in0.3 mm
06:00 PM 47.7°F8.7°C 14.5°F-9.7°C 26% 4.5 mph NE7.2 kmh NE 15.2 mph24.5 kmh 30.38 in1028.8 mb 0.00 in0.0 mm 0.00 in0.0 mm 0.01 in0.3 mm
05:55 PM 47.8°F8.8°C 14.6°F-9.7°C 26% 8.3 mph ENE13.4 kmh ENE 15.2 mph24.5 kmh 30.37 in1028.4 mb 0.00 in0.0 mm 0.00 in0.0 mm 0.01 in0.3 mm
05:50 PM 48.0°F8.9°C 14.8°F-9.6°C 26% 8.3 mph NE13.4 kmh NE 15.2 mph24.5 kmh 30.37 in1028.4 mb 0.00 in0.0 mm 0.00 in0.0 mm 0.01 in0.3 mm
05:45 PM 48.4°F9.1°C 14.2°F-9.9°C 25% 9.2 mph NE14.8 kmh NE 14.5 mph23.3 kmh 30.38 in1028.8 mb 0.00 in0.0 mm 0.00 in0.0 mm 0.01 in0.3 mm
05:40 PM 48.6°F9.2°C 15.3°F-9.3°C 26% 5.4 mph E8.7 kmh E 14.5 mph23.3 kmh 30.37 in1028.4 mb 0.00 in0.0 mm 0.00 in0.0 mm 0.01 in0.3 mm
05:35 PM 48.9°F9.4°C 16.4°F-8.7°C 27% 3.8 mph E6.1 kmh E 13.6 mph21.9 kmh 30.37 in1028.4 mb 0.00 in0.0 mm 0.00 in0.0 mm 0.01 in0.3 mm
05:30 PM 49.3°F9.6°C 16.7°F-8.5°C 27% 5.4 mph E8.7 kmh E 9.2 mph14.8 kmh 30.37 in1028.4 mb 0.00 in0.0 mm 0.00 in0.0 mm 0.01 in0.3 mm
05:25 PM 49.6°F9.8°C 17.9°F-7.8°C 28% 4.5 mph E7.2 kmh E 13.0 mph20.9 kmh 30.37 in1028.4 mb 0.00 in0.0 mm 0.00 in0.0 mm 0.01 in0.3 mm
05:20 PM 49.8°F9.9°C 18.0°F-7.8°C 28% 1.6 mph E2.6 kmh E 13.0 mph20.9 kmh 30.36 in1028.1 mb 0.00 in0.0 mm 0.00 in0.0 mm 0.01 in0.3 mm
05:15 PM 49.8°F9.9°C 18.0°F-7.8°C 28% 9.8 mph E15.8 kmh E 13.0 mph20.9 kmh 30.37 in1028.4 mb 0.00 in0.0 mm 0.00 in0.0 mm 0.01 in0.3 mm
05:10 PM 50.0°F10.0°C 18.2°F-7.7°C 28% 3.8 mph E6.1 kmh E 9.8 mph15.8 kmh 30.36 in1028.1 mb 0.00 in0.0 mm 0.00 in0.0 mm 0.01 in0.3 mm
05:05 PM 50.4°F10.2°C 16.8°F-8.4°C 26% 3.8 mph E6.1 kmh E 12.1 mph19.5 kmh 30.36 in1028.1 mb 0.00 in0.0 mm 0.00 in0.0 mm 0.01 in0.3 mm
05:00 PM 50.4°F10.2°C 16.8°F-8.4°C 26% 7.6 mph E12.2 kmh E 12.1 mph19.5 kmh 30.36 in1028.1 mb 0.00 in0.0 mm 0.00 in0.0 mm 0.01 in0.3 mm
04:55 PM 50.5°F10.3°C 16.9°F-8.4°C 26% 6.0 mph ENE9.7 kmh ENE 14.5 mph23.3 kmh 30.36 in1028.1 mb 0.00 in0.0 mm 0.00 in0.0 mm 0.01 in0.3 mm
04:50 PM 50.7°F10.4°C 16.2°F-8.8°C 25% 5.4 mph NE8.7 kmh NE 14.5 mph23.3 kmh 30.36 in1028.1 mb 0.00 in0.0 mm 0.00 in0.0 mm 0.01 in0.3 mm
04:45 PM 50.9°F10.5°C 16.4°F-8.7°C 25% 7.6 mph E12.2 kmh E 12.1 mph19.5 kmh 30.36 in1028.1 mb 0.00 in0.0 mm 0.00 in0.0 mm 0.01 in0.3 mm
04:40 PM 51.1°F10.6°C 15.6°F-9.1°C 24% 5.4 mph E8.7 kmh E 13.0 mph20.9 kmh 30.36 in1028.1 mb 0.00 in0.0 mm 0.00 in0.0 mm 0.01 in0.3 mm
04:35 PM 51.3°F10.7°C 15.7°F-9.1°C 24% 6.9 mph NE11.1 kmh NE 13.0 mph20.9 kmh 30.36 in1028.1 mb 0.00 in0.0 mm 0.00 in0.0 mm 0.01 in0.3 mm
04:30 PM 51.4°F10.8°C 15.9°F-8.9°C 24% 3.1 mph NE5.0 kmh NE 12.1 mph19.5 kmh 30.35 in1027.8 mb 0.00 in0.0 mm 0.00 in0.0 mm 0.01 in0.3 mm
04:25 PM 51.4°F10.8°C 14.9°F-9.5°C 23% 6.0 mph ENE9.7 kmh ENE 13.0 mph20.9 kmh 30.35 in1027.8 mb 0.00 in0.0 mm 0.00 in0.0 mm 0.01 in0.3 mm
04:20 PM 51.4°F10.8°C 14.9°F-9.5°C 23% 6.0 mph ENE9.7 kmh ENE 13.6 mph21.9 kmh 30.36 in1028.1 mb 0.00 in0.0 mm 0.00 in0.0 mm 0.01 in0.3 mm
04:15 PM 51.8°F11.0°C 14.2°F-9.9°C 22% 5.4 mph E8.7 kmh E 13.6 mph21.9 kmh 30.35 in1027.8 mb 0.00 in0.0 mm 0.00 in0.0 mm 0.01 in0.3 mm
04:10 PM 51.8°F11.0°C 14.2°F-9.9°C 22% 7.6 mph E12.2 kmh E 13.6 mph21.9 kmh 30.35 in1027.8 mb 0.00 in0.0 mm 0.00 in0.0 mm 0.01 in0.3 mm
04:05 PM 52.3°F11.3°C 14.6°F-9.7°C 22% 4.5 mph E7.2 kmh E 10.7 mph17.2 kmh 30.35 in1027.8 mb 0.00 in0.0 mm 0.00 in0.0 mm 0.01 in0.3 mm
04:00 PM 52.3°F11.3°C 14.6°F-9.7°C 22% 4.5 mph ENE7.2 kmh ENE 12.1 mph19.5 kmh 30.35 in1027.8 mb 0.00 in0.0 mm 0.00 in0.0 mm 0.01 in0.3 mm
03:55 PM 52.5°F11.4°C 14.8°F-9.6°C 22% 5.4 mph ENE8.7 kmh ENE 15.2 mph24.5 kmh 30.35 in1027.8 mb 0.00 in0.0 mm 0.00 in0.0 mm 0.01 in0.3 mm
03:50 PM 52.7°F11.5°C 16.0°F-8.9°C 23% 6.0 mph NE9.7 kmh NE 15.2 mph24.5 kmh 30.35 in1027.8 mb 0.00 in0.0 mm 0.00 in0.0 mm 0.01 in0.3 mm
03:45 PM 52.9°F11.6°C 15.1°F-9.4°C 22% 9.2 mph NE14.8 kmh NE 12.1 mph19.5 kmh 30.34 in1027.4 mb 0.00 in0.0 mm 0.00 in0.0 mm 0.01 in0.3 mm
03:40 PM 53.1°F11.7°C 16.3°F-8.7°C 23% 6.9 mph E11.1 kmh E 12.1 mph19.5 kmh 30.34 in1027.4 mb 0.00 in0.0 mm 0.00 in0.0 mm 0.01 in0.3 mm
03:35 PM 53.1°F11.7°C 15.2°F-9.3°C 22% 3.8 mph E6.1 kmh E 15.2 mph24.5 kmh 30.35 in1027.8 mb 0.00 in0.0 mm 0.00 in0.0 mm 0.01 in0.3 mm
03:30 PM 53.6°F12.0°C 14.6°F-9.7°C 21% 6.9 mph ENE11.1 kmh ENE 15.2 mph24.5 kmh 30.34 in1027.4 mb 0.00 in0.0 mm 0.00 in0.0 mm 0.01 in0.3 mm
03:25 PM 54.1°F12.3°C 15.1°F-9.4°C 21% 6.9 mph NE11.1 kmh NE 12.1 mph19.5 kmh 30.34 in1027.4 mb 0.00 in0.0 mm 0.00 in0.0 mm 0.01 in0.3 mm
03:20 PM 54.3°F12.4°C 15.2°F-9.3°C 21% 6.9 mph NE11.1 kmh NE 12.1 mph19.5 kmh 30.34 in1027.4 mb 0.00 in0.0 mm 0.00 in0.0 mm 0.01 in0.3 mm
03:15 PM 54.3°F12.4°C 15.2°F-9.3°C 21% 5.4 mph E8.7 kmh E 12.1 mph19.5 kmh 30.35 in1027.8 mb 0.00 in0.0 mm 0.00 in0.0 mm 0.01 in0.3 mm
03:10 PM 54.3°F12.4°C 15.2°F-9.3°C 21% 3.8 mph E6.1 kmh E 15.9 mph25.6 kmh 30.35 in1027.8 mb 0.00 in0.0 mm 0.00 in0.0 mm 0.01 in0.3 mm
03:05 PM 54.5°F12.5°C 15.4°F-9.2°C 21% 1.6 mph ENE2.6 kmh ENE 16.8 mph27.0 kmh 30.35 in1027.8 mb 0.00 in0.0 mm 0.00 in0.0 mm 0.01 in0.3 mm
03:00 PM 54.5°F12.5°C 15.4°F-9.2°C 21% 2.2 mph ENE3.5 kmh ENE 16.8 mph27.0 kmh 30.34 in1027.4 mb 0.00 in0.0 mm 0.00 in0.0 mm 0.01 in0.3 mm
02:55 PM 54.9°F12.7°C 14.6°F-9.7°C 20% 4.5 mph NNE7.2 kmh NNE 15.9 mph25.6 kmh 30.35 in1027.8 mb 0.00 in0.0 mm 0.00 in0.0 mm 0.01 in0.3 mm
02:50 PM 54.9°F12.7°C 13.4°F-10.3°C 19% 6.0 mph NE9.7 kmh NE 15.9 mph25.6 kmh 30.35 in1027.8 mb 0.00 in0.0 mm 0.00 in0.0 mm 0.01 in0.3 mm
02:45 PM 55.0°F12.8°C 13.6°F-10.2°C 19% 9.8 mph NE15.8 kmh NE 15.9 mph25.6 kmh 30.35 in1027.8 mb 0.00 in0.0 mm 0.00 in0.0 mm 0.01 in0.3 mm
02:40 PM 55.2°F12.9°C 13.7°F-10.2°C 19% 8.3 mph NE13.4 kmh NE 18.3 mph29.5 kmh 30.35 in1027.8 mb 0.00 in0.0 mm 0.00 in0.0 mm 0.01 in0.3 mm
02:35 PM 55.2°F12.9°C 14.9°F-9.5°C 20% 3.8 mph NE6.1 kmh NE 18.3 mph29.5 kmh 30.35 in1027.8 mb 0.00 in0.0 mm 0.00 in0.0 mm 0.01 in0.3 mm
02:30 PM 55.8°F13.2°C 20.5°F-6.4°C 25% 8.3 mph N13.4 kmh N 17.4 mph28.0 kmh 30.35 in1027.8 mb 0.00 in0.0 mm 0.00 in0.0 mm 0.01 in0.3 mm
02:25 PM 56.1°F13.4°C 20.8°F-6.2°C 25% 5.4 mph N8.7 kmh N 17.4 mph28.0 kmh 30.35 in1027.8 mb 0.00 in0.0 mm 0.00 in0.0 mm 0.01 in0.3 mm
02:20 PM 56.1°F13.4°C 20.8°F-6.2°C 25% 4.5 mph N7.2 kmh N 8.3 mph13.4 kmh 30.35 in1027.8 mb 0.00 in0.0 mm 0.00 in0.0 mm 0.01 in0.3 mm
02:15 PM 55.8°F13.2°C 23.2°F-4.9°C 28% 3.1 mph N5.0 kmh N 13.0 mph20.9 kmh 30.35 in1027.8 mb 0.00 in0.0 mm 0.00 in0.0 mm 0.01 in0.3 mm
02:10 PM 55.8°F13.2°C 23.2°F-4.9°C 28% 3.8 mph NNW6.1 kmh NNW 13.0 mph20.9 kmh 30.35 in1027.8 mb 0.00 in0.0 mm 0.00 in0.0 mm 0.01 in0.3 mm
02:05 PM 55.4°F13.0°C 23.7°F-4.6°C 29% 3.1 mph NNW5.0 kmh NNW 15.9 mph25.6 kmh 30.35 in1027.8 mb 0.00 in0.0 mm 0.00 in0.0 mm 0.01 in0.3 mm
02:00 PM 55.2°F12.9°C 22.7°F-5.2°C 28% 6.9 mph N11.1 kmh N 15.9 mph25.6 kmh 30.35 in1027.8 mb 0.00 in0.0 mm 0.00 in0.0 mm 0.01 in0.3 mm
01:55 PM 55.2°F12.9°C 23.5°F-4.7°C 29% 5.4 mph N8.7 kmh N 17.4 mph28.0 kmh 30.35 in1027.8 mb 0.00 in0.0 mm 0.00 in0.0 mm 0.01 in0.3 mm
01:50 PM 55.2°F12.9°C 21.8°F-5.7°C 27% 10.7 mph N17.2 kmh N 17.4 mph28.0 kmh 30.35 in1027.8 mb 0.00 in0.0 mm 0.00 in0.0 mm 0.01 in0.3 mm
01:45 PM 55.6°F13.1°C 23.8°F-4.6°C 29% 10.7 mph N17.2 kmh N 17.4 mph28.0 kmh 30.35 in1027.8 mb 0.00 in0.0 mm 0.00 in0.0 mm 0.01 in0.3 mm
01:40 PM 55.4°F13.0°C 24.5°F-4.2°C 30% 9.2 mph N14.8 kmh N 13.6 mph21.9 kmh 30.35 in1027.8 mb 0.00 in0.0 mm 0.00 in0.0 mm 0.01 in0.3 mm
01:35 PM 55.4°F13.0°C 22.9°F-5.1°C 28% 7.6 mph N12.2 kmh N 13.6 mph21.9 kmh 30.35 in1027.8 mb 0.00 in0.0 mm 0.00 in0.0 mm 0.01 in0.3 mm
01:30 PM 55.4°F13.0°C 25.3°F-3.7°C 31% 3.1 mph NNE5.0 kmh NNE 14.5 mph23.3 kmh 30.35 in1027.8 mb 0.00 in0.0 mm 0.00 in0.0 mm 0.01 in0.3 mm
01:25 PM 55.2°F12.9°C 22.7°F-5.2°C 28% 5.4 mph NNE8.7 kmh NNE 14.5 mph23.3 kmh 30.35 in1027.8 mb 0.00 in0.0 mm 0.00 in0.0 mm 0.01 in0.3 mm
01:20 PM 55.0°F12.8°C 21.7°F-5.7°C 27% 4.5 mph N7.2 kmh N 15.9 mph25.6 kmh 30.35 in1027.8 mb 0.00 in0.0 mm 0.00 in0.0 mm 0.01 in0.3 mm
01:15 PM 55.4°F13.0°C 24.5°F-4.2°C 30% 9.2 mph N14.8 kmh N 15.9 mph25.6 kmh 30.35 in1027.8 mb 0.00 in0.0 mm 0.00 in0.0 mm 0.01 in0.3 mm
01:10 PM 55.6°F13.1°C 25.4°F-3.7°C 31% 6.9 mph N11.1 kmh N 13.0 mph20.9 kmh 30.35 in1027.8 mb 0.00 in0.0 mm 0.00 in0.0 mm 0.01 in0.3 mm
01:05 PM 55.6°F13.1°C 25.4°F-3.7°C 31% 2.2 mph N3.5 kmh N 13.6 mph21.9 kmh 30.35 in1027.8 mb 0.00 in0.0 mm 0.00 in0.0 mm 0.01 in0.3 mm
01:00 PM 55.9°F13.3°C 27.3°F-2.6°C 33% 9.8 mph N15.8 kmh N 13.6 mph21.9 kmh 30.36 in1028.1 mb 0.00 in0.0 mm 0.00 in0.0 mm 0.01 in0.3 mm
12:55 PM 55.8°F13.2°C 26.4°F-3.1°C 32% Calm Calm 6.0 mph9.7 kmh 30.36 in1028.1 mb 0.00 in0.0 mm 0.00 in0.0 mm 0.01 in0.3 mm
12:50 PM 55.6°F13.1°C 27.7°F-2.4°C 34% Calm Calm 7.6 mph12.2 kmh 30.36 in1028.1 mb 0.00 in0.0 mm 0.00 in0.0 mm 0.01 in0.3 mm
12:45 PM 55.0°F12.8°C 25.7°F-3.5°C 32% Calm Calm 7.6 mph12.2 kmh 30.35 in1027.8 mb 0.00 in0.0 mm 0.00 in0.0 mm 0.01 in0.3 mm
12:40 PM 54.5°F12.5°C 25.3°F-3.7°C 32% Calm Calm 11.4 mph18.3 kmh 30.36 in1028.1 mb 0.00 in0.0 mm 0.00 in0.0 mm 0.01 in0.3 mm
12:35 PM 54.5°F12.5°C 26.0°F-3.3°C 33% 3.1 mph ENE5.0 kmh ENE 11.4 mph18.3 kmh 30.36 in1028.1 mb 0.00 in0.0 mm 0.00 in0.0 mm 0.01 in0.3 mm
12:30 PM 54.7°F12.6°C 26.2°F-3.2°C 33% 7.6 mph E12.2 kmh E 11.4 mph18.3 kmh 30.36 in1028.1 mb 0.00 in0.0 mm 0.00 in0.0 mm 0.01 in0.3 mm
12:25 PM 54.3°F12.4°C 27.9°F-2.3°C 36% 0.7 mph E1.1 kmh E 9.8 mph15.8 kmh 30.36 in1028.1 mb 0.00 in0.0 mm 0.00 in0.0 mm 0.01 in0.3 mm
12:20 PM 54.0°F12.2°C 27.6°F-2.4°C 36% Calm Calm 9.8 mph15.8 kmh 30.36 in1028.1 mb 0.00 in0.0 mm 0.00 in0.0 mm 0.01 in0.3 mm
12:15 PM 54.0°F12.2°C 26.9°F-2.8°C 35% 1.6 mph ENE2.6 kmh ENE 9.2 mph14.8 kmh 30.35 in1027.8 mb 0.00 in0.0 mm 0.00 in0.0 mm 0.01 in0.3 mm
12:10 PM 53.6°F12.0°C 27.3°F-2.6°C 36% 1.6 mph NE2.6 kmh NE 9.2 mph14.8 kmh 30.35 in1027.8 mb 0.00 in0.0 mm 0.00 in0.0 mm 0.01 in0.3 mm
12:05 PM 52.9°F11.6°C 29.2°F-1.6°C 40% 8.3 mph ENE13.4 kmh ENE 12.1 mph19.5 kmh 30.35 in1027.8 mb 0.00 in0.0 mm 0.00 in0.0 mm 0.01 in0.3 mm
12:00 PM 52.9°F11.6°C 29.2°F-1.6°C 40% 3.8 mph ENE6.1 kmh ENE 12.1 mph19.5 kmh 30.36 in1028.1 mb 0.00 in0.0 mm 0.00 in0.0 mm 0.01 in0.3 mm
11:55 AM 52.5°F11.4°C 30.7°F-0.7°C 43% 6.0 mph NNE9.7 kmh NNE 14.5 mph23.3 kmh 30.35 in1027.8 mb 0.00 in0.0 mm 0.00 in0.0 mm 0.01 in0.3 mm
11:50 AM 52.0°F11.1°C 30.8°F-0.7°C 44% 6.0 mph N9.7 kmh N 14.5 mph23.3 kmh 30.36 in1028.1 mb 0.00 in0.0 mm 0.00 in0.0 mm 0.01 in0.3 mm
11:45 AM 51.3°F10.7°C 31.2°F-0.4°C 46% 4.5 mph NE7.2 kmh NE 12.1 mph19.5 kmh 30.36 in1028.1 mb 0.00 in0.0 mm 0.00 in0.0 mm 0.01 in0.3 mm
11:40 AM 50.9°F10.5°C 30.9°F-0.6°C 46% 2.2 mph E3.5 kmh E 12.1 mph19.5 kmh 30.35 in1027.8 mb 0.00 in0.0 mm 0.00 in0.0 mm 0.01 in0.3 mm
11:35 AM 50.9°F10.5°C 30.3°F-0.9°C 45% 5.4 mph ESE8.7 kmh ESE 9.8 mph15.8 kmh 30.36 in1028.1 mb 0.00 in0.0 mm 0.00 in0.0 mm 0.01 in0.3 mm
11:30 AM 50.5°F10.3°C 32.6°F0.3°C 50% 6.0 mph SE9.7 kmh SE 9.8 mph15.8 kmh 30.35 in1027.8 mb 0.00 in0.0 mm 0.00 in0.0 mm 0.01 in0.3 mm
11:25 AM 50.0°F10.0°C 34.5°F1.4°C 55% 6.9 mph SSE11.1 kmh SSE 9.8 mph15.8 kmh 30.35 in1027.8 mb 0.00 in0.0 mm 0.00 in0.0 mm 0.01 in0.3 mm
11:20 AM 49.8°F9.9°C 36.1°F2.3°C 59% 5.4 mph SSE8.7 kmh SSE 8.3 mph13.4 kmh 30.35 in1027.8 mb 0.00 in0.0 mm 0.00 in0.0 mm 0.01 in0.3 mm
11:15 AM 49.5°F9.7°C 37.0°F2.8°C 62% 3.1 mph SSE5.0 kmh SSE 5.4 mph8.7 kmh 30.35 in1027.8 mb 0.00 in0.0 mm 0.00 in0.0 mm 0.01 in0.3 mm
11:10 AM 49.1°F9.5°C 37.5°F3.1°C 64% 3.1 mph S5.0 kmh S 5.4 mph8.7 kmh 30.35 in1027.8 mb 0.00 in0.0 mm 0.00 in0.0 mm 0.01 in0.3 mm
11:05 AM 48.2°F9.0°C 37.0°F2.8°C 65% 2.2 mph SE3.5 kmh SE 9.2 mph14.8 kmh 30.35 in1027.8 mb 0.00 in0.0 mm 0.00 in0.0 mm 0.01 in0.3 mm
11:00 AM 48.0°F8.9°C 36.8°F2.7°C 65% 3.1 mph SE5.0 kmh SE 9.2 mph14.8 kmh 30.34 in1027.4 mb 0.00 in0.0 mm 0.00 in0.0 mm 0.01 in0.3 mm
10:55 AM 48.0°F8.9°C 36.8°F2.7°C 65% 7.6 mph SE12.2 kmh SE 9.2 mph14.8 kmh 30.33 in1027.1 mb 0.00 in0.0 mm 0.00 in0.0 mm 0.01 in0.3 mm
10:50 AM 47.3°F8.5°C 36.5°F2.5°C 66% 0.7 mph SSE1.1 kmh SSE 8.3 mph13.4 kmh 30.34 in1027.4 mb 0.00 in0.0 mm 0.00 in0.0 mm 0.01 in0.3 mm
10:45 AM 47.3°F8.5°C 36.1°F2.3°C 65% 1.6 mph SSE2.6 kmh SSE 8.3 mph13.4 kmh 30.33 in1027.1 mb 0.00 in0.0 mm 0.00 in0.0 mm 0.01 in0.3 mm
10:40 AM 47.3°F8.5°C 36.1°F2.3°C 65% 2.2 mph SSE3.5 kmh SSE 7.6 mph12.2 kmh 30.33 in1027.1 mb 0.00 in0.0 mm 0.00 in0.0 mm 0.01 in0.3 mm
10:35 AM 46.2°F7.9°C 35.5°F1.9°C 66% 1.6 mph SE2.6 kmh SE 7.6 mph12.2 kmh 30.32 in1026.8 mb 0.00 in0.0 mm 0.00 in0.0 mm 0.01 in0.3 mm
10:30 AM 45.7°F7.6°C 36.1°F2.3°C 69% 3.8 mph SE6.1 kmh SE 9.2 mph14.8 kmh 30.32 in1026.8 mb 0.00 in0.0 mm 0.00 in0.0 mm 0.01 in0.3 mm
10:25 AM 45.0°F7.2°C 35.4°F1.9°C 69% 5.4 mph SE8.7 kmh SE 9.2 mph14.8 kmh 30.32 in1026.8 mb 0.00 in0.0 mm 0.00 in0.0 mm 0.01 in0.3 mm
10:20 AM 44.8°F7.1°C 34.9°F1.6°C 68% 3.1 mph SE5.0 kmh SE 10.7 mph17.2 kmh 30.32 in1026.8 mb 0.00 in0.0 mm 0.00 in0.0 mm 0.01 in0.3 mm
10:15 AM 45.1°F7.3°C 34.5°F1.4°C 66% 5.4 mph SE8.7 kmh SE 10.7 mph17.2 kmh 30.32 in1026.8 mb 0.00 in0.0 mm 0.00 in0.0 mm 0.01 in0.3 mm
10:10 AM 45.1°F7.3°C 35.2°F1.8°C 68% 3.1 mph S5.0 kmh S 4.5 mph7.2 kmh 30.32 in1026.8 mb 0.00 in0.0 mm 0.00 in0.0 mm 0.01 in0.3 mm
10:05 AM 44.8°F7.1°C 34.5°F1.4°C 67% 1.6 mph SE2.6 kmh SE 8.3 mph13.4 kmh 30.31 in1026.4 mb 0.00 in0.0 mm 0.00 in0.0 mm 0.01 in0.3 mm
10:00 AM 44.8°F7.1°C 34.5°F1.4°C 67% 1.6 mph SE2.6 kmh SE 8.3 mph13.4 kmh 30.31 in1026.4 mb 0.00 in0.0 mm 0.00 in0.0 mm 0.01 in0.3 mm
09:55 AM 45.3°F7.4°C 34.3°F1.3°C 65% 6.0 mph E9.7 kmh E 15.2 mph24.5 kmh 30.30 in1026.1 mb 0.00 in0.0 mm 0.00 in0.0 mm 0.01 in0.3 mm
09:50 AM 44.4°F6.9°C 34.2°F1.2°C 67% 3.1 mph E5.0 kmh E 15.2 mph24.5 kmh 30.30 in1026.1 mb 0.00 in0.0 mm 0.00 in0.0 mm 0.01 in0.3 mm
09:45 AM 42.4°F5.8°C 35.1°F1.7°C 75% 6.9 mph ESE11.1 kmh ESE 9.2 mph14.8 kmh 30.30 in1026.1 mb 0.00 in0.0 mm 0.00 in0.0 mm 0.01 in0.3 mm
09:40 AM 41.7°F5.4°C 34.4°F1.3°C 75% 3.1 mph SE5.0 kmh SE 9.8 mph15.8 kmh 30.30 in1026.1 mb 0.00 in0.0 mm 0.00 in0.0 mm 0.01 in0.3 mm
09:35 AM 41.7°F5.4°C 34.4°F1.3°C 75% 6.9 mph SE11.1 kmh SE 9.8 mph15.8 kmh 30.29 in1025.7 mb 0.00 in0.0 mm 0.00 in0.0 mm 0.01 in0.3 mm
09:30 AM 41.7°F5.4°C 34.1°F1.2°C 74% 2.2 mph SE3.5 kmh SE 8.3 mph13.4 kmh 30.29 in1025.7 mb 0.00 in0.0 mm 0.00 in0.0 mm 0.01 in0.3 mm
09:25 AM 42.4°F5.8°C 34.4°F1.3°C 73% 4.5 mph E7.2 kmh E 14.5 mph23.3 kmh 30.28 in1025.4 mb 0.00 in0.0 mm 0.00 in0.0 mm 0.01 in0.3 mm
09:20 AM 42.1°F5.6°C 34.7°F1.5°C 75% 3.8 mph E6.1 kmh E 14.5 mph23.3 kmh 30.29 in1025.7 mb 0.00 in0.0 mm 0.00 in0.0 mm 0.01 in0.3 mm
09:15 AM 41.0°F5.0°C 35.3°F1.8°C 80% 3.1 mph SE5.0 kmh SE 9.2 mph14.8 kmh 30.28 in1025.4 mb 0.00 in0.0 mm 0.00 in0.0 mm 0.01 in0.3 mm
09:10 AM 40.5°F4.7°C 36.0°F2.2°C 84% 3.8 mph SE6.1 kmh SE 9.8 mph15.8 kmh 30.27 in1025.1 mb 0.00 in0.0 mm 0.00 in0.0 mm 0.01 in0.3 mm
09:05 AM 40.6°F4.8°C 36.5°F2.5°C 85% 3.1 mph SE5.0 kmh SE 9.8 mph15.8 kmh 30.27 in1025.1 mb 0.00 in0.0 mm 0.00 in0.0 mm 0.01 in0.3 mm
09:00 AM 40.5°F4.7°C 36.6°F2.6°C 86% 7.6 mph SE12.2 kmh SE 9.8 mph15.8 kmh 30.27 in1025.1 mb 0.00 in0.0 mm 0.00 in0.0 mm 0.01 in0.3 mm
08:55 AM 40.8°F4.9°C 37.0°F2.8°C 86% 3.8 mph SE6.1 kmh SE 9.2 mph14.8 kmh 30.27 in1025.1 mb 0.00 in0.0 mm 0.00 in0.0 mm 0.01 in0.3 mm
08:50 AM 41.0°F5.0°C 37.4°F3.0°C 87% 4.5 mph ENE7.2 kmh ENE 12.1 mph19.5 kmh 30.27 in1025.1 mb 0.00 in0.0 mm 0.00 in0.0 mm 0.01 in0.3 mm
08:45 AM 39.0°F3.9°C 36.6°F2.6°C 91% 6.0 mph NE9.7 kmh NE 12.1 mph19.5 kmh 30.26 in1024.7 mb 0.01 in0.3 mm 0.00 in0.0 mm 0.01 in0.3 mm
08:40 AM 37.8°F3.2°C 35.4°F1.9°C 91% 3.1 mph NNE5.0 kmh NNE 7.6 mph12.2 kmh 30.26 in1024.7 mb 0.01 in0.3 mm 0.00 in0.0 mm 0.01 in0.3 mm
08:35 AM 37.9°F3.3°C 35.6°F2.0°C 91% 3.8 mph NNE6.1 kmh NNE 6.9 mph11.1 kmh 30.26 in1024.7 mb 0.01 in0.3 mm 0.00 in0.0 mm 0.01 in0.3 mm
08:30 AM 38.3°F3.5°C 35.9°F2.2°C 91% 3.8 mph NE6.1 kmh NE 5.4 mph8.7 kmh 30.25 in1024.4 mb 0.01 in0.3 mm 0.00 in0.0 mm 0.01 in0.3 mm
08:25 AM 38.8°F3.8°C 36.4°F2.4°C 91% 1.6 mph E2.6 kmh E 6.9 mph11.1 kmh 30.25 in1024.4 mb 0.01 in0.3 mm 0.00 in0.0 mm 0.01 in0.3 mm
08:20 AM 39.4°F4.1°C 36.7°F2.6°C 90% 2.2 mph ESE3.5 kmh ESE 8.3 mph13.4 kmh 30.24 in1024.0 mb 0.01 in0.3 mm 0.00 in0.0 mm 0.01 in0.3 mm
08:15 AM 39.7°F4.3°C 37.3°F2.9°C 91% 3.1 mph ESE5.0 kmh ESE 8.3 mph13.4 kmh 30.24 in1024.0 mb 0.01 in0.3 mm 0.00 in0.0 mm 0.01 in0.3 mm
08:10 AM 40.3°F4.6°C 37.9°F3.3°C 91% 5.4 mph E8.7 kmh E 6.9 mph11.1 kmh 30.24 in1024.0 mb 0.01 in0.3 mm 0.00 in0.0 mm 0.01 in0.3 mm
08:05 AM 41.0°F5.0°C 39.1°F3.9°C 93% 2.2 mph E3.5 kmh E 15.2 mph24.5 kmh 30.24 in1024.0 mb 0.01 in0.3 mm 0.00 in0.0 mm 0.01 in0.3 mm
08:00 AM 41.0°F5.0°C 39.1°F3.9°C 93% 2.2 mph ENE3.5 kmh ENE 15.2 mph24.5 kmh 30.24 in1024.0 mb 0.01 in0.3 mm 0.00 in0.0 mm 0.01 in0.3 mm
07:55 AM 40.1°F4.5°C 38.8°F3.8°C 95% 9.8 mph N15.8 kmh N 15.2 mph24.5 kmh 30.24 in1024.0 mb 0.01 in0.3 mm 0.00 in0.0 mm 0.01 in0.3 mm
07:50 AM 39.2°F4.0°C 37.9°F3.3°C 95% 9.2 mph N14.8 kmh N 13.6 mph21.9 kmh 30.23 in1023.7 mb 0.01 in0.3 mm 0.12 in3.0 mm 0.01 in0.3 mm
07:45 AM 38.3°F3.5°C 37.0°F2.8°C 95% 5.4 mph E8.7 kmh E 13.6 mph21.9 kmh 30.23 in1023.7 mb 0.00 in0.0 mm 0.00 in0.0 mm 0.00 in0.0 mm
07:40 AM 38.3°F3.5°C 37.0°F2.8°C 95% 4.5 mph SE7.2 kmh SE 7.6 mph12.2 kmh 30.23 in1023.7 mb 0.00 in0.0 mm 0.00 in0.0 mm 0.00 in0.0 mm
07:35 AM 38.3°F3.5°C 37.0°F2.8°C 95% Calm Calm 3.1 mph5.0 kmh 30.22 in1023.4 mb 0.00 in0.0 mm 0.00 in0.0 mm 0.00 in0.0 mm
07:30 AM 38.5°F3.6°C 37.4°F3.0°C 96% 2.2 mph SE3.5 kmh SE 6.0 mph9.7 kmh 30.22 in1023.4 mb 0.00 in0.0 mm 0.00 in0.0 mm 0.00 in0.0 mm
07:25 AM 38.5°F3.6°C 37.4°F3.0°C 96% Calm Calm 7.6 mph12.2 kmh 30.22 in1023.4 mb 0.00 in0.0 mm 0.00 in0.0 mm 0.00 in0.0 mm
07:20 AM 38.1°F3.4°C 36.8°F2.7°C 95% 0.7 mph ESE1.1 kmh ESE 8.3 mph13.4 kmh 30.22 in1023.4 mb 0.00 in0.0 mm 0.00 in0.0 mm 0.00 in0.0 mm
07:15 AM 37.9°F3.3°C 36.6°F2.6°C 95% 3.8 mph WNW6.1 kmh WNW 8.3 mph13.4 kmh 30.22 in1023.4 mb 0.00 in0.0 mm 0.00 in0.0 mm 0.00 in0.0 mm
07:10 AM 37.9°F3.3°C 36.6°F2.6°C 95% 0.7 mph NW1.1 kmh NW 4.5 mph7.2 kmh 30.22 in1023.4 mb 0.00 in0.0 mm 0.00 in0.0 mm 0.00 in0.0 mm
07:05 AM 38.1°F3.4°C 36.8°F2.7°C 95% 1.6 mph NNW2.6 kmh NNW 7.6 mph12.2 kmh 30.22 in1023.4 mb 0.00 in0.0 mm 0.00 in0.0 mm 0.00 in0.0 mm
07:00 AM 38.1°F3.4°C 36.8°F2.7°C 95% 1.6 mph N2.6 kmh N 7.6 mph12.2 kmh 30.22 in1023.4 mb 0.00 in0.0 mm 0.00 in0.0 mm 0.00 in0.0 mm
06:55 AM 38.1°F3.4°C 36.8°F2.7°C 95% 3.8 mph NE6.1 kmh NE 8.3 mph13.4 kmh 30.22 in1023.4 mb 0.00 in0.0 mm 0.00 in0.0 mm 0.00 in0.0 mm
06:50 AM 38.3°F3.5°C 37.0°F2.8°C 95% 0.7 mph E1.1 kmh E 8.3 mph13.4 kmh 30.22 in1023.4 mb 0.00 in0.0 mm 0.00 in0.0 mm 0.00 in0.0 mm
06:45 AM 38.1°F3.4°C 36.8°F2.7°C 95% 3.1 mph ESE5.0 kmh ESE 9.8 mph15.8 kmh 30.21 in1023.0 mb 0.00 in0.0 mm 0.00 in0.0 mm 0.00 in0.0 mm
06:40 AM 38.1°F3.4°C 36.8°F2.7°C 95% 3.8 mph ESE6.1 kmh ESE 9.8 mph15.8 kmh 30.21 in1023.0 mb 0.00 in0.0 mm 0.00 in0.0 mm 0.00 in0.0 mm
06:35 AM 38.3°F3.5°C 37.0°F2.8°C 95% 0.7 mph SE1.1 kmh SE 5.4 mph8.7 kmh 30.21 in1023.0 mb 0.00 in0.0 mm 0.00 in0.0 mm 0.00 in0.0 mm
06:30 AM 38.5°F3.6°C 37.2°F2.9°C 95% 1.6 mph SSW2.6 kmh SSW 3.1 mph5.0 kmh 30.20 in1022.7 mb 0.00 in0.0 mm 0.00 in0.0 mm 0.00 in0.0 mm
06:25 AM 38.5°F3.6°C 37.2°F2.9°C 95% 1.6 mph NNW2.6 kmh NNW 3.1 mph5.0 kmh 30.19 in1022.4 mb 0.00 in0.0 mm 0.00 in0.0 mm 0.00 in0.0 mm
06:20 AM 38.8°F3.8°C 37.5°F3.1°C 95% Calm Calm 3.1 mph5.0 kmh 30.19 in1022.4 mb 0.00 in0.0 mm 0.00 in0.0 mm 0.00 in0.0 mm
06:15 AM 39.0°F3.9°C 38.0°F3.3°C 96% 1.6 mph ENE2.6 kmh ENE 3.1 mph5.0 kmh 30.20 in1022.7 mb 0.00 in0.0 mm 0.00 in0.0 mm 0.00 in0.0 mm
06:10 AM 39.2°F4.0°C 37.9°F3.3°C 95% Calm Calm 3.1 mph5.0 kmh 30.19 in1022.4 mb 0.00 in0.0 mm 0.00 in0.0 mm 0.00 in0.0 mm
06:05 AM 39.2°F4.0°C 37.9°F3.3°C 95% Calm Calm 3.1 mph5.0 kmh 30.19 in1022.4 mb 0.00 in0.0 mm 0.00 in0.0 mm 0.00 in0.0 mm
06:00 AM 39.2°F4.0°C 37.9°F3.3°C 95% Calm Calm 3.1 mph5.0 kmh 30.19 in1022.4 mb 0.00 in0.0 mm 0.00 in0.0 mm 0.00 in0.0 mm
05:55 AM 39.2°F4.0°C 37.9°F3.3°C 95% 2.2 mph NNE3.5 kmh NNE 3.1 mph5.0 kmh 30.19 in1022.4 mb 0.00 in0.0 mm 0.00 in0.0 mm 0.00 in0.0 mm
05:50 AM 39.2°F4.0°C 37.9°F3.3°C 95% Calm Calm 3.8 mph6.1 kmh 30.19 in1022.4 mb 0.00 in0.0 mm 0.00 in0.0 mm 0.00 in0.0 mm
05:45 AM 39.2°F4.0°C 37.6°F3.1°C 94% Calm Calm 3.8 mph6.1 kmh 30.19 in1022.4 mb 0.00 in0.0 mm 0.00 in0.0 mm 0.00 in0.0 mm
05:40 AM 39.2°F4.0°C 37.6°F3.1°C 94% 1.6 mph ENE2.6 kmh ENE 3.1 mph5.0 kmh 30.19 in1022.4 mb 0.00 in0.0 mm 0.00 in0.0 mm 0.00 in0.0 mm
05:35 AM 39.2°F4.0°C 37.6°F3.1°C 94% Calm Calm -- 30.19 in1022.4 mb 0.00 in0.0 mm 0.00 in0.0 mm 0.00 in0.0 mm
05:30 AM 39.2°F4.0°C 37.6°F3.1°C 94% Calm Calm 3.8 mph6.1 kmh 30.19 in1022.4 mb 0.00 in0.0 mm 0.00 in0.0 mm 0.00 in0.0 mm
05:25 AM 39.2°F4.0°C 37.6°F3.1°C 94% Calm Calm 3.8 mph6.1 kmh 30.18 in1022.0 mb 0.00 in0.0 mm 0.00 in0.0 mm 0.00 in0.0 mm
05:20 AM 39.2°F4.0°C 37.6°F3.1°C 94% 1.6 mph NE2.6 kmh NE 3.1 mph5.0 kmh 30.19 in1022.4 mb 0.00 in0.0 mm 0.00 in0.0 mm 0.00 in0.0 mm
05:15 AM 39.2°F4.0°C 37.6°F3.1°C 94% 0.7 mph SE1.1 kmh SE 3.1 mph5.0 kmh 30.18 in1022.0 mb 0.00 in0.0 mm 0.00 in0.0 mm 0.00 in0.0 mm
05:10 AM 39.2°F4.0°C 37.6°F3.1°C 94% Calm Calm 3.1 mph5.0 kmh 30.19 in1022.4 mb 0.00 in0.0 mm 0.00 in0.0 mm 0.00 in0.0 mm
05:05 AM 39.2°F4.0°C 37.6°F3.1°C 94% 1.6 mph SE2.6 kmh SE 3.1 mph5.0 kmh 30.19 in1022.4 mb 0.00 in0.0 mm 0.00 in0.0 mm 0.00 in0.0 mm
05:00 AM 39.2°F4.0°C 37.6°F3.1°C 94% Calm Calm 2.2 mph3.5 kmh 30.19 in1022.4 mb 0.00 in0.0 mm 0.00 in0.0 mm 0.00 in0.0 mm
04:55 AM 39.2°F4.0°C 37.6°F3.1°C 94% Calm Calm 4.5 mph7.2 kmh 30.19 in1022.4 mb 0.00 in0.0 mm 0.00 in0.0 mm 0.00 in0.0 mm
04:50 AM 39.2°F4.0°C 37.6°F3.1°C 94% 0.7 mph N1.1 kmh N 4.5 mph7.2 kmh 30.19 in1022.4 mb 0.00 in0.0 mm 0.00 in0.0 mm 0.00 in0.0 mm
04:45 AM 39.2°F4.0°C 37.6°F3.1°C 94% Calm Calm 4.5 mph7.2 kmh 30.18 in1022.0 mb 0.00 in0.0 mm 0.00 in0.0 mm 0.00 in0.0 mm
04:40 AM 39.0°F3.9°C 37.7°F3.2°C 95% Calm Calm 3.1 mph5.0 kmh 30.19 in1022.4 mb 0.00 in0.0 mm 0.00 in0.0 mm 0.00 in0.0 mm
04:35 AM 39.0°F3.9°C 37.7°F3.2°C 95% Calm Calm 3.1 mph5.0 kmh 30.19 in1022.4 mb 0.00 in0.0 mm 0.00 in0.0 mm 0.00 in0.0 mm
04:30 AM 38.8°F3.8°C 37.5°F3.1°C 95% Calm Calm 2.2 mph3.5 kmh 30.19 in1022.4 mb 0.00 in0.0 mm 0.00 in0.0 mm 0.00 in0.0 mm
04:25 AM 38.8°F3.8°C 37.5°F3.1°C 95% Calm Calm 0.7 mph1.1 kmh 30.19 in1022.4 mb 0.00 in0.0 mm 0.00 in0.0 mm 0.00 in0.0 mm
04:20 AM 38.8°F3.8°C 37.5°F3.1°C 95% Calm Calm -- 30.19 in1022.4 mb 0.00 in0.0 mm 0.00 in0.0 mm 0.00 in0.0 mm
04:15 AM 38.8°F3.8°C 37.5°F3.1°C 95% Calm Calm -- 30.19 in1022.4 mb 0.00 in0.0 mm 0.00 in0.0 mm 0.00 in0.0 mm
04:10 AM 38.7°F3.7°C 37.4°F3.0°C 95% Calm Calm 0.7 mph1.1 kmh 30.19 in1022.4 mb 0.00 in0.0 mm 0.00 in0.0 mm 0.00 in0.0 mm
04:05 AM 38.7°F3.7°C 37.1°F2.8°C 94% Calm Calm 2.2 mph3.5 kmh 30.19 in1022.4 mb 0.00 in0.0 mm 0.00 in0.0 mm 0.00 in0.0 mm
04:00 AM 38.7°F3.7°C 37.1°F2.8°C 94% Calm Calm 2.2 mph3.5 kmh 30.19 in1022.4 mb 0.00 in0.0 mm 0.00 in0.0 mm 0.00 in0.0 mm
03:55 AM 38.7°F3.7°C 37.1°F2.8°C 94% 0.7 mph SE1.1 kmh SE 3.1 mph5.0 kmh 30.19 in1022.4 mb 0.00 in0.0 mm 0.00 in0.0 mm 0.00 in0.0 mm
03:50 AM 38.7°F3.7°C 37.1°F2.8°C 94% Calm Calm 4.5 mph7.2 kmh 30.18 in1022.0 mb 0.00 in0.0 mm 0.00 in0.0 mm 0.00 in0.0 mm
03:45 AM 38.5°F3.6°C 36.9°F2.7°C 94% 0.7 mph E1.1 kmh E 4.5 mph7.2 kmh 30.18 in1022.0 mb 0.00 in0.0 mm 0.00 in0.0 mm 0.00 in0.0 mm
03:40 AM 38.5°F3.6°C 36.9°F2.7°C 94% Calm Calm 3.8 mph6.1 kmh 30.19 in1022.4 mb 0.00 in0.0 mm 0.00 in0.0 mm 0.00 in0.0 mm
03:35 AM 38.3°F3.5°C 36.7°F2.6°C 94% 0.7 mph ENE1.1 kmh ENE 2.2 mph3.5 kmh 30.18 in1022.0 mb 0.00 in0.0 mm 0.00 in0.0 mm 0.00 in0.0 mm
03:30 AM 38.3°F3.5°C 36.7°F2.6°C 94% 1.6 mph NE2.6 kmh NE 2.2 mph3.5 kmh 30.19 in1022.4 mb 0.00 in0.0 mm 0.00 in0.0 mm 0.00 in0.0 mm
03:25 AM 38.3°F3.5°C 36.5°F2.5°C 93% Calm Calm -- 30.18 in1022.0 mb 0.00 in0.0 mm 0.00 in0.0 mm 0.00 in0.0 mm
03:20 AM 38.3°F3.5°C 36.5°F2.5°C 93% Calm Calm -- 30.18 in1022.0 mb 0.00 in0.0 mm 0.00 in0.0 mm 0.00 in0.0 mm
03:15 AM 38.5°F3.6°C 36.6°F2.6°C 93% Calm Calm -- 30.18 in1022.0 mb 0.00 in0.0 mm 0.00 in0.0 mm 0.00 in0.0 mm
03:10 AM 38.7°F3.7°C 37.1°F2.8°C 94% Calm Calm -- 30.18 in1022.0 mb 0.00 in0.0 mm 0.00 in0.0 mm 0.00 in0.0 mm
03:05 AM 38.8°F3.8°C 37.3°F2.9°C 94% Calm Calm -- 30.18 in1022.0 mb 0.00 in0.0 mm 0.00 in0.0 mm 0.00 in0.0 mm
03:00 AM 39.0°F3.9°C 37.4°F3.0°C 94% Calm Calm -- 30.18 in1022.0 mb 0.00 in0.0 mm 0.00 in0.0 mm 0.00 in0.0 mm
02:55 AM 39.0°F3.9°C 37.4°F3.0°C 94% Calm Calm 0.7 mph1.1 kmh 30.18 in1022.0 mb 0.00 in0.0 mm 0.00 in0.0 mm 0.00 in0.0 mm
02:50 AM 39.0°F3.9°C 37.4°F3.0°C 94% Calm Calm 2.2 mph3.5 kmh 30.18 in1022.0 mb 0.00 in0.0 mm 0.00 in0.0 mm 0.00 in0.0 mm
02:45 AM 39.0°F3.9°C 37.2°F2.9°C 93% Calm Calm 3.8 mph6.1 kmh 30.18 in1022.0 mb 0.00 in0.0 mm 0.00 in0.0 mm 0.00 in0.0 mm
02:40 AM 39.0°F3.9°C 37.2°F2.9°C 93% 0.7 mph NE1.1 kmh NE 3.8 mph6.1 kmh 30.18 in1022.0 mb 0.00 in0.0 mm 0.00 in0.0 mm 0.00 in0.0 mm
02:35 AM 38.8°F3.8°C 37.0°F2.8°C 93% 0.7 mph NE1.1 kmh NE 3.1 mph5.0 kmh 30.18 in1022.0 mb 0.00 in0.0 mm 0.00 in0.0 mm 0.00 in0.0 mm
02:30 AM 38.8°F3.8°C 37.0°F2.8°C 93% 1.6 mph NE2.6 kmh NE 2.2 mph3.5 kmh 30.18 in1022.0 mb 0.00 in0.0 mm 0.00 in0.0 mm 0.00 in0.0 mm
02:25 AM 38.7°F3.7°C 36.8°F2.7°C 93% Calm Calm 1.6 mph2.6 kmh 30.18 in1022.0 mb 0.00 in0.0 mm 0.00 in0.0 mm 0.00 in0.0 mm
02:20 AM 38.7°F3.7°C 36.5°F2.5°C 92% Calm Calm 3.1 mph5.0 kmh 30.17 in1021.7 mb 0.00 in0.0 mm 0.00 in0.0 mm 0.00 in0.0 mm
02:15 AM 38.5°F3.6°C 36.4°F2.4°C 92% 1.6 mph E2.6 kmh E 3.1 mph5.0 kmh 30.17 in1021.7 mb 0.00 in0.0 mm 0.00 in0.0 mm 0.00 in0.0 mm
02:10 AM 38.5°F3.6°C 36.4°F2.4°C 92% 1.6 mph E2.6 kmh E 2.2 mph3.5 kmh 30.17 in1021.7 mb 0.00 in0.0 mm 0.00 in0.0 mm 0.00 in0.0 mm
02:05 AM 38.1°F3.4°C 36.0°F2.2°C 92% Calm Calm 1.6 mph2.6 kmh 30.17 in1021.7 mb 0.00 in0.0 mm 0.00 in0.0 mm 0.00 in0.0 mm
02:00 AM 38.1°F3.4°C 36.0°F2.2°C 92% Calm Calm 1.6 mph2.6 kmh 30.16 in1021.3 mb 0.00 in0.0 mm 0.00 in0.0 mm 0.00 in0.0 mm
01:55 AM 38.1°F3.4°C 35.7°F2.1°C 91% Calm Calm -- 30.16 in1021.3 mb 0.00 in0.0 mm 0.00 in0.0 mm 0.00 in0.0 mm
01:50 AM 38.1°F3.4°C 35.7°F2.1°C 91% Calm Calm -- 30.16 in1021.3 mb 0.00 in0.0 mm 0.00 in0.0 mm 0.00 in0.0 mm
01:45 AM 38.3°F3.5°C 35.9°F2.2°C 91% Calm Calm -- 30.16 in1021.3 mb 0.00 in0.0 mm 0.00 in0.0 mm 0.00 in0.0 mm
01:40 AM 38.3°F3.5°C 35.9°F2.2°C 91% Calm Calm 1.6 mph2.6 kmh 30.16 in1021.3 mb 0.00 in0.0 mm 0.00 in0.0 mm 0.00 in0.0 mm
01:35 AM 38.5°F3.6°C 36.1°F2.3°C 91% Calm Calm 2.2 mph3.5 kmh 30.16 in1021.3 mb 0.00 in0.0 mm 0.00 in0.0 mm 0.00 in0.0 mm
01:30 AM 38.5°F3.6°C 35.8°F2.1°C 90% Calm Calm 3.1 mph5.0 kmh 30.16 in1021.3 mb 0.00 in0.0 mm 0.00 in0.0 mm 0.00 in0.0 mm
01:25 AM 38.5°F3.6°C 35.8°F2.1°C 90% Calm Calm 3.1 mph5.0 kmh 30.16 in1021.3 mb 0.00 in0.0 mm 0.00 in0.0 mm 0.00 in0.0 mm
01:20 AM 38.5°F3.6°C 35.8°F2.1°C 90% Calm Calm 3.8 mph6.1 kmh 30.16 in1021.3 mb 0.00 in0.0 mm 0.00 in0.0 mm 0.00 in0.0 mm
01:15 AM 38.5°F3.6°C 35.8°F2.1°C 90% Calm Calm 3.8 mph6.1 kmh 30.16 in1021.3 mb 0.00 in0.0 mm 0.00 in0.0 mm 0.00 in0.0 mm
01:10 AM 38.8°F3.8°C 36.2°F2.3°C 90% 0.7 mph ENE1.1 kmh ENE 2.2 mph3.5 kmh 30.15 in1021.0 mb 0.00 in0.0 mm 0.00 in0.0 mm 0.00 in0.0 mm
01:05 AM 39.0°F3.9°C 36.3°F2.4°C 90% Calm Calm 1.6 mph2.6 kmh 30.15 in1021.0 mb 0.00 in0.0 mm 0.00 in0.0 mm 0.00 in0.0 mm
01:00 AM 39.4°F4.1°C 36.4°F2.4°C 89% Calm Calm 1.6 mph2.6 kmh 30.15 in1021.0 mb 0.00 in0.0 mm 0.00 in0.0 mm 0.00 in0.0 mm
12:55 AM 39.9°F4.4°C 36.9°F2.7°C 89% Calm Calm 1.6 mph2.6 kmh 30.15 in1021.0 mb 0.00 in0.0 mm 0.00 in0.0 mm 0.37 in9.4 mm
12:50 AM 40.5°F4.7°C 37.5°F3.1°C 89% Calm Calm 2.2 mph3.5 kmh 30.15 in1021.0 mb 0.00 in0.0 mm 0.00 in0.0 mm 0.37 in9.4 mm
12:45 AM 40.6°F4.8°C 37.7°F3.2°C 89% 0.7 mph SE1.1 kmh SE 2.2 mph3.5 kmh 30.14 in1020.7 mb 0.00 in0.0 mm 0.00 in0.0 mm 0.37 in9.4 mm
12:40 AM 40.8°F4.9°C 37.8°F3.2°C 89% Calm Calm 3.1 mph5.0 kmh 30.15 in1021.0 mb 0.00 in0.0 mm 0.00 in0.0 mm 0.37 in9.4 mm
12:35 AM 41.0°F5.0°C 37.7°F3.2°C 88% 0.7 mph SE1.1 kmh SE 3.1 mph5.0 kmh 30.14 in1020.7 mb 0.00 in0.0 mm 0.00 in0.0 mm 0.37 in9.4 mm
12:30 AM 41.0°F5.0°C 37.7°F3.2°C 88% Calm Calm 3.1 mph5.0 kmh 30.14 in1020.7 mb 0.00 in0.0 mm 0.00 in0.0 mm 0.37 in9.4 mm
12:25 AM 41.2°F5.1°C 37.9°F3.3°C 88% Calm Calm 3.1 mph5.0 kmh 30.14 in1020.7 mb 0.00 in0.0 mm 0.00 in0.0 mm 0.37 in9.4 mm
12:20 AM 41.2°F5.1°C 37.9°F3.3°C 88% Calm Calm 2.2 mph3.5 kmh 30.14 in1020.7 mb 0.00 in0.0 mm 0.00 in0.0 mm 0.37 in9.4 mm
12:15 AM 41.2°F5.1°C 37.9°F3.3°C 88% Calm Calm 2.2 mph3.5 kmh 30.14 in1020.7 mb 0.00 in0.0 mm 0.00 in0.0 mm 0.37 in9.4 mm
12:10 AM 41.2°F5.1°C 37.6°F3.1°C 87% Calm Calm 2.2 mph3.5 kmh 30.14 in1020.7 mb 0.00 in0.0 mm 0.00 in0.0 mm 0.37 in9.4 mm
12:05 AM 41.2°F5.1°C 37.6°F3.1°C 87% Calm Calm 0.7 mph1.1 kmh 30.14 in1020.7 mb 0.00 in0.0 mm 0.00 in0.0 mm 0.37 in9.4 mm
12:00 AM 41.2°F5.1°C 37.6°F3.1°C 87% Calm Calm 2.2 mph3.5 kmh 30.14 in1020.7 mb 0.00 in0.0 mm 0.00 in0.0 mm 0.37 in9.4 mm